Warners, New York
Current Conditions -  °F | °C
As of 8:07 AM on Friday 28 Nov 2014 (Local Time) from KSYR Reporting Station
Light Snow Light Snow  
Wind Chill: -10°   Ceiling: 3100
Heat Index: -3°   Visibility: 9mi
Dew Point: -7°   Wind: 16mph
Humidity: 78%   Direction: 270°W
Pressure: 30.18"   Gusts: NA
Location:  43.09°N, 76.33°W
Report Text: KSYR 281307Z 27014KT 9SM -SN FEW025 BKN031 M03/M07 A3018 RMK AO2 P0000 T10331067
Loading
Personal Weather Stations






























Interactive Weather Map New forecast layout! Learn more

10-Day Weather Forecast

Advertisements
Track Severe Weather on mobile